Accueil
METAR-TAF:

METAR-TAF

Aéroports :

Cassel, Allemagne

latitude: 51-24N, longitude: 009-23E, altitude: 277 m

Observation

Le bulletin a été fait il y a 24 minutes, à 08:50 UTC
Vent 12 kt de sud/sud-ouest, variant entre sud et sud-ouest
Température 16°C
Humidité 68%
Pression 1017 hPa
Visibilité 10 km ou plus
Nuages épars à une hauteur de 2900 ft

METAR: EDVK 190850Z 20012KT 170V230 9999 SCT029 16/10 Q1017

Heure: 11:14 (09:14 UTC)

Prévision

Le bulletin a été fait il y a 1 heure et 14 minutes, à 08:00 UTC
Prévision valable du 19 à 09 UTC au 19 à 18 UTC
Vent 12 kt de sud-ouest
Visibilité 10 km ou plus
Quelques nuages à une hauteur de 3500 ft
Temporairement
du 19 à 16 UTC au 19 à 18 UTC
Nuages fragmentés à une hauteur de 3500 ft, Cumulonimbus.
averses de pluie

TAF: EDVK 190800Z 1909/1918 22012KT 9999 FEW035 TEMPO 1916/1918 SHRA BKN035CB

Observations et prévisions météorologiques de plus de 4000 aéroports (messages METAR et TAF).

Les stations disponibles sont représentées par des disques jaunes et rouges sur la carte.

Passer la souris dessus pour voir le nom de la station.

Cliquer dessus pour voir les observations et prévisions météorologiques.

Pour changer de carte: cliquez sur les boutons verts avec une croix noire pour zoomer, sur le bouton vert avec un tiret pour effectuer un zoom arrière, ou sur les flèches vertes pour les cartes adjacentes.


METAR-TAF: